createdAt,value
2022-11-09T00:01:04.204Z,70.65
2022-11-09T00:02:06.254Z,73.98
2022-11-09T00:03:08.236Z,73.11
2022-11-09T00:04:10.496Z,75.19
2022-11-09T00:05:12.560Z,83.17
2022-11-09T00:06:15.159Z,82.60
2022-11-09T00:07:17.077Z,83.61
2022-11-09T00:08:19.774Z,82.14
2022-11-09T00:09:21.693Z,87.65
2022-11-09T00:10:23.868Z,83.09
2022-11-09T00:11:25.770Z,86.69
2022-11-09T00:12:27.644Z,85.94
2022-11-09T00:13:29.618Z,81.65
2022-11-09T00:14:31.485Z,83.07
2022-11-09T00:15:33.377Z,78.47
2022-11-09T00:16:36.198Z,76.62
2022-11-09T00:17:38.077Z,82.72
2022-11-09T00:18:40.967Z,88.11
2022-11-09T00:19:43.788Z,90.74
2022-11-09T00:20:47.929Z,86.12
2022-11-09T00:21:52.195Z,95.30
2022-11-09T00:22:54.197Z,91.26
2022-11-09T00:23:56.475Z,83.86
2022-11-09T00:24:58.361Z,94.45
2022-11-09T00:26:05.483Z,88.30
2022-11-09T00:27:07.397Z,95.91
2022-11-09T00:28:09.401Z,84.65
2022-11-09T00:29:12.321Z,80.92
2022-11-09T00:30:16.118Z,81.66
2022-11-09T00:31:21.552Z,87.99
2022-11-09T00:32:27.632Z,92.52
2022-11-09T00:33:28.093Z,89.57
2022-11-09T00:34:30.001Z,83.41
2022-11-09T00:35:31.971Z,82.91
2022-11-09T00:36:34.026Z,83.75
2022-11-09T00:37:36.065Z,83.85
2022-11-09T00:38:39.636Z,87.75
2022-11-09T00:39:41.567Z,85.64
2022-11-09T00:40:43.552Z,85.62
2022-11-09T00:41:45.430Z,85.06
2022-11-09T00:42:47.310Z,81.59
2022-11-09T00:43:52.559Z,84.41
2022-11-09T00:44:54.667Z,83.92
2022-11-09T00:45:56.993Z,79.43
2022-11-09T00:46:58.981Z,96.50
2022-11-09T00:48:01.666Z,92.24
2022-11-09T00:49:03.546Z,90.33
2022-11-09T00:50:07.444Z,87.57
2022-11-09T00:51:10.051Z,91.70
2022-11-09T00:52:11.912Z,80.72
2022-11-09T00:53:13.785Z,85.49
2022-11-09T00:54:15.651Z,83.68
2022-11-09T00:55:17.524Z,91.05
2022-11-09T00:56:20.990Z,75.55
2022-11-09T00:57:22.894Z,75.00
2022-11-09T00:58:27.121Z,78.61
2022-11-09T00:59:29.051Z,77.19
2022-11-09T01:00:31.018Z,82.68
2022-11-09T01:01:33.028Z,77.26
2022-11-09T01:02:34.985Z,78.97
2022-11-09T01:03:37.722Z,85.05
2022-11-09T01:04:41.804Z,82.81
2022-11-09T01:05:45.136Z,77.81
2022-11-09T01:06:47.346Z,74.53
2022-11-09T01:07:50.621Z,76.95
2022-11-09T01:08:54.268Z,79.31
2022-11-09T01:09:57.346Z,76.76
2022-11-09T01:11:05.533Z,77.09
2022-11-09T01:12:07.636Z,76.80
2022-11-09T01:13:11.420Z,75.31
2022-11-09T01:14:13.340Z,70.52
2022-11-09T01:15:15.931Z,75.32
2022-11-09T01:16:22.172Z,68.25
2022-11-09T01:17:24.617Z,77.69
2022-11-09T01:18:26.675Z,76.65
2022-11-09T01:19:29.583Z,76.13
2022-11-09T01:20:31.555Z,66.23
2022-11-09T01:21:33.683Z,71.26
2022-11-09T01:22:35.587Z,75.83
2022-11-09T01:23:39.628Z,75.29
2022-11-09T01:24:41.945Z,75.27
2022-11-09T01:25:44.762Z,72.90
2022-11-09T01:26:46.750Z,70.61
2022-11-09T01:27:48.623Z,74.35
2022-11-09T01:28:51.793Z,73.03
2022-11-09T01:29:53.716Z,76.76
2022-11-09T01:30:57.563Z,75.29
2022-11-09T01:31:59.476Z,74.61
2022-11-09T01:33:09.925Z,79.59
2022-11-09T01:34:11.855Z,80.85
2022-11-09T01:35:13.786Z,83.17
2022-11-09T01:36:19.668Z,77.33
2022-11-09T01:37:21.582Z,78.79
2022-11-09T01:38:23.458Z,80.34
2022-11-09T01:39:25.321Z,81.09
2022-11-09T01:40:29.386Z,73.83
2022-11-09T01:41:33.120Z,82.42
2022-11-09T01:42:36.713Z,78.33
2022-11-09T01:43:38.734Z,75.78
2022-11-09T01:44:40.842Z,70.73
2022-11-09T01:45:46.482Z,75.69
2022-11-09T01:47:12.985Z,75.40
2022-11-09T01:48:21.275Z,76.46
2022-11-09T01:49:53.770Z,72.54
2022-11-09T01:51:08.898Z,77.54
2022-11-09T01:52:14.631Z,69.00
2022-11-09T01:53:20.549Z,70.97
2022-11-09T01:54:31.703Z,70.94
2022-11-09T01:55:34.242Z,74.09
2022-11-09T01:56:37.108Z,81.05
2022-11-09T01:57:48.511Z,74.04
2022-11-09T01:59:57.840Z,69.72
2022-11-09T02:01:00.481Z,73.22
2022-11-09T02:02:06.212Z,73.34
2022-11-09T02:03:11.902Z,64.59
2022-11-09T02:04:23.163Z,76.48
2022-11-09T02:05:28.969Z,74.98
2022-11-09T02:06:33.344Z,75.43
2022-11-09T02:07:37.221Z,70.94
2022-11-09T02:08:40.642Z,73.17
2022-11-09T02:10:01.343Z,69.18
2022-11-09T02:11:09.828Z,67.22
2022-11-09T02:12:12.229Z,62.66
2022-11-09T02:13:17.754Z,73.36
2022-11-09T02:14:22.740Z,65.95
2022-11-09T02:15:25.751Z,65.71
2022-11-09T02:16:29.654Z,63.16
2022-11-09T02:17:32.342Z,69.14
2022-11-09T02:18:36.060Z,74.31
2022-11-09T02:19:37.974Z,75.05
2022-11-09T02:20:49.773Z,65.42
2022-11-09T02:21:52.072Z,64.54
2022-11-09T02:22:54.983Z,63.07
2022-11-09T02:23:57.951Z,65.74
2022-11-09T02:24:59.946Z,66.89
2022-11-09T02:26:09.545Z,67.17
2022-11-09T02:27:11.771Z,67.12
2022-11-09T02:28:15.882Z,66.63
2022-11-09T02:29:24.924Z,67.04
2022-11-09T02:30:27.776Z,68.08
2022-11-09T02:33:57.481Z,65.89
2022-11-09T02:34:59.398Z,66.00
2022-11-09T02:36:01.262Z,67.45
2022-11-09T02:37:03.637Z,62.75
2022-11-09T02:38:08.013Z,61.63
2022-11-09T02:39:13.005Z,61.21
2022-11-09T02:40:30.621Z,69.23
2022-11-09T02:41:36.286Z,66.84
2022-11-09T02:42:38.483Z,67.10
2022-11-09T02:43:41.806Z,66.66
2022-11-09T02:44:47.368Z,66.18
2022-11-09T02:45:49.391Z,67.83
2022-11-09T02:46:51.500Z,61.36
2022-11-09T02:47:53.469Z,66.04
2022-11-09T02:48:55.333Z,71.56
2022-11-09T02:49:57.319Z,61.77
2022-11-09T02:50:59.297Z,66.48
2022-11-09T02:52:03.923Z,63.97
2022-11-09T02:53:05.818Z,64.17
2022-11-09T02:54:07.708Z,68.31
2022-11-09T02:55:10.152Z,63.65
2022-11-09T02:56:13.017Z,59.21
2022-11-09T02:57:15.020Z,59.67
2022-11-09T02:58:16.882Z,57.51
2022-11-09T02:59:18.749Z,63.05
2022-11-09T03:00:20.772Z,60.64
2022-11-09T03:01:23.705Z,59.33
2022-11-09T03:02:26.484Z,55.85
2022-11-09T03:03:28.364Z,54.55
2022-11-09T03:04:30.866Z,57.93
2022-11-09T03:05:32.751Z,54.59
2022-11-09T03:06:35.380Z,55.93
2022-11-09T03:07:37.924Z,53.53
2022-11-09T03:08:39.800Z,56.07
2022-11-09T03:09:41.688Z,55.79
2022-11-09T03:10:43.648Z,65.03
2022-11-09T03:11:47.426Z,55.68
2022-11-09T03:12:49.337Z,55.02
2022-11-09T03:13:51.227Z,54.13
2022-11-09T03:14:53.096Z,55.81
2022-11-09T03:15:55.418Z,57.47
2022-11-09T03:16:57.421Z,51.11
2022-11-09T03:17:59.332Z,49.05
2022-11-09T03:19:01.865Z,47.36
2022-11-09T03:20:04.832Z,46.83
2022-11-09T03:21:06.813Z,45.99
2022-11-09T03:22:08.905Z,50.27
2022-11-09T03:23:10.766Z,50.70
2022-11-09T03:24:12.638Z,50.39
2022-11-09T03:25:14.820Z,52.58
2022-11-09T03:26:17.610Z,47.35
2022-11-09T03:27:19.719Z,49.61
2022-11-09T03:28:21.581Z,50.96
2022-11-09T03:29:23.454Z,45.69
2022-11-09T03:30:26.386Z,50.06
2022-11-09T03:31:28.425Z,52.42
2022-11-09T03:32:30.362Z,49.90
2022-11-09T03:33:32.645Z,46.38
2022-11-09T03:34:35.421Z,47.40
2022-11-09T03:35:38.602Z,46.63
2022-11-09T03:36:40.605Z,53.71
2022-11-09T03:37:42.552Z,51.28
2022-11-09T03:38:45.678Z,46.52
2022-11-09T03:39:47.559Z,46.55
2022-11-09T03:40:49.636Z,48.89
2022-11-09T03:41:51.654Z,51.35
2022-11-09T03:42:53.547Z,44.50
2022-11-09T03:43:56.010Z,46.06
2022-11-09T03:44:58.923Z,45.16
2022-11-09T03:46:00.812Z,46.19
2022-11-09T03:47:02.897Z,47.06
2022-11-09T03:48:05.381Z,45.96
2022-11-09T03:49:07.255Z,48.39
2022-11-09T03:50:10.693Z,47.51
2022-11-09T03:51:12.630Z,43.04
2022-11-09T03:52:14.522Z,43.07
2022-11-09T03:53:19.521Z,44.09
2022-11-09T03:54:21.990Z,41.89
2022-11-09T03:55:24.895Z,41.97
2022-11-09T03:56:27.041Z,43.53
2022-11-09T03:57:29.263Z,45.69
2022-11-09T03:58:31.159Z,41.98
2022-11-09T03:59:33.055Z,42.63
2022-11-09T04:00:35.632Z,42.51
2022-11-09T04:01:37.602Z,44.79
2022-11-09T04:02:39.766Z,42.61
2022-11-09T04:03:42.190Z,44.82
2022-11-09T04:04:44.531Z,42.84
2022-11-09T04:05:47.150Z,45.13
2022-11-09T04:06:49.156Z,40.81
2022-11-09T04:07:57.842Z,43.21
2022-11-09T04:08:59.921Z,45.96
2022-11-09T04:10:02.006Z,46.25
2022-11-09T04:11:05.351Z,43.93
2022-11-09T04:12:07.506Z,44.89
2022-11-09T04:13:09.470Z,49.20
2022-11-09T04:14:11.422Z,46.97
2022-11-09T04:15:14.798Z,47.73
2022-11-09T04:16:17.536Z,44.07
2022-11-09T04:17:19.427Z,47.52
2022-11-09T04:18:21.485Z,44.69
2022-11-09T04:19:23.475Z,44.43
2022-11-09T04:20:27.403Z,47.49
2022-11-09T04:21:29.568Z,46.93
2022-11-09T04:22:31.460Z,44.21
2022-11-09T04:23:33.388Z,45.23
2022-11-09T04:24:35.275Z,50.43
2022-11-09T04:25:40.548Z,44.42
2022-11-09T04:26:42.661Z,46.41
2022-11-09T04:27:44.550Z,47.73
2022-11-09T04:28:46.450Z,46.19
2022-11-09T04:29:48.306Z,47.17
2022-11-09T04:30:51.154Z,44.60
2022-11-09T04:31:53.051Z,46.91
2022-11-09T04:32:56.494Z,47.63
2022-11-09T04:33:58.430Z,43.91
2022-11-09T04:35:00.314Z,46.67
2022-11-09T04:36:04.312Z,50.01
2022-11-09T04:37:07.739Z,49.52
2022-11-09T04:38:13.098Z,47.53
2022-11-09T04:39:15.376Z,50.69
2022-11-09T04:40:17.739Z,50.04
2022-11-09T04:41:19.703Z,42.74
2022-11-09T04:42:21.579Z,44.37
2022-11-09T04:43:24.002Z,45.05
2022-11-09T04:44:25.879Z,40.73
2022-11-09T04:45:28.373Z,41.77
2022-11-09T04:46:30.442Z,42.95
2022-11-09T04:47:32.294Z,43.98
2022-11-09T04:48:35.813Z,44.21
2022-11-09T04:49:37.731Z,39.94
2022-11-09T04:50:39.702Z,42.19
2022-11-09T04:51:41.595Z,41.02
2022-11-09T04:52:43.689Z,39.93
2022-11-09T04:53:45.620Z,40.43
2022-11-09T04:54:47.487Z,39.11
2022-11-09T04:55:50.423Z,43.93
2022-11-09T06:02:32.604Z,64.28
2022-11-09T06:03:35.245Z,65.61
2022-11-09T06:04:37.799Z,60.47
2022-11-09T06:05:41.057Z,65.52
2022-11-09T06:06:43.652Z,64.29
2022-11-09T06:07:46.821Z,59.58
2022-11-09T06:08:49.815Z,65.33
2022-11-09T06:09:51.706Z,60.47
2022-11-09T06:11:00.534Z,63.87
2022-11-09T06:12:02.853Z,61.98
2022-11-09T06:13:04.934Z,62.07
2022-11-09T06:14:07.942Z,62.85
2022-11-09T06:15:10.084Z,59.26
2022-11-09T06:16:12.282Z,58.02
2022-11-09T06:17:14.290Z,62.70
2022-11-09T06:18:16.171Z,58.85
2022-11-09T06:19:18.380Z,63.35
2022-11-09T06:20:21.477Z,65.39
2022-11-09T06:21:23.455Z,62.56
2022-11-09T06:22:25.314Z,60.06
2022-11-09T06:23:28.211Z,65.13
2022-11-09T06:24:30.103Z,64.31
2022-11-09T06:25:32.493Z,69.06
2022-11-09T06:26:34.555Z,61.09
2022-11-09T06:27:36.416Z,60.82
2022-11-09T06:28:40.439Z,60.72
2022-11-09T06:29:43.463Z,65.67
2022-11-09T06:30:47.053Z,63.81
2022-11-09T06:31:48.979Z,63.62
2022-11-09T06:32:50.974Z,67.61
2022-11-09T06:33:53.328Z,69.79
2022-11-09T06:34:55.203Z,73.21
2022-11-09T06:35:58.058Z,74.22
2022-11-09T06:37:00.113Z,67.75
2022-11-09T06:38:01.990Z,71.34
2022-11-09T06:39:04.489Z,70.01
2022-11-09T06:40:08.223Z,64.30
2022-11-09T06:41:10.252Z,70.69
2022-11-09T06:42:12.679Z,62.80
2022-11-09T06:43:14.755Z,64.01
2022-11-09T06:44:16.666Z,58.74
2022-11-09T06:45:18.554Z,57.60
2022-11-09T06:46:20.557Z,59.09
2022-11-09T06:47:23.024Z,55.52
2022-11-09T06:48:24.887Z,60.86
2022-11-09T06:49:26.853Z,55.54
2022-11-09T06:50:31.703Z,57.11
2022-11-09T06:51:33.610Z,57.05
2022-11-09T06:52:35.605Z,57.97
2022-11-09T06:53:37.783Z,61.48
2022-11-09T06:54:40.166Z,56.89
2022-11-09T06:55:49.139Z,54.24
2022-11-09T06:56:47.310Z,58.35
2022-11-09T06:57:49.176Z,52.97
2022-11-09T06:58:51.541Z,54.12
2022-11-09T06:59:53.565Z,52.21
2022-11-09T07:00:55.790Z,56.90
2022-11-09T07:02:01.480Z,57.61
2022-11-09T07:03:02.357Z,55.99
2022-11-09T07:04:04.386Z,58.29
2022-11-09T07:05:07.113Z,53.39
2022-11-09T07:06:12.032Z,55.61
2022-11-09T07:07:14.009Z,53.38
2022-11-09T07:08:17.244Z,54.79
2022-11-09T07:09:20.123Z,58.63
2022-11-09T07:10:22.508Z,64.78
2022-11-09T07:11:24.502Z,71.23
2022-11-09T07:12:27.077Z,72.11
2022-11-09T07:13:28.949Z,63.79
2022-11-09T07:14:30.965Z,65.48
2022-11-09T07:15:34.141Z,74.05
2022-11-09T07:16:36.167Z,80.67
2022-11-09T07:17:38.608Z,66.33
2022-11-09T07:18:40.641Z,65.28
2022-11-09T07:19:43.874Z,63.88
2022-11-09T07:20:45.959Z,47.95
2022-11-09T07:21:47.839Z,41.20
2022-11-09T07:22:50.790Z,36.85
2022-11-09T07:23:52.662Z,32.16
2022-11-09T07:24:54.551Z,28.83
2022-11-09T07:25:58.558Z,28.83
2022-11-09T07:27:00.750Z,30.74
2022-11-09T07:28:08.070Z,28.14
2022-11-09T07:29:10.078Z,30.12
2022-11-09T07:30:13.355Z,29.27
2022-11-09T07:31:15.239Z,28.34
2022-11-09T07:32:17.158Z,28.63
2022-11-09T07:33:20.091Z,31.54
2022-11-09T07:34:22.273Z,31.11
2022-11-09T07:35:24.300Z,26.17
2022-11-09T07:36:27.189Z,28.03
2022-11-09T07:37:30.956Z,25.45
2022-11-09T07:38:34.018Z,27.92
2022-11-09T07:39:35.976Z,29.48
2022-11-09T07:40:39.233Z,27.49
2022-11-09T07:41:41.303Z,28.99
2022-11-09T07:42:43.171Z,28.39
2022-11-09T07:43:45.056Z,27.58
2022-11-09T07:44:46.940Z,25.71
2022-11-09T07:45:49.395Z,31.57
2022-11-09T07:46:51.375Z,27.90
2022-11-09T07:47:59.193Z,31.00
2022-11-09T07:49:02.245Z,28.72
2022-11-09T07:50:05.703Z,33.22
2022-11-09T07:51:07.706Z,35.59
2022-11-09T07:52:10.557Z,32.27
2022-11-09T07:53:14.312Z,27.39
2022-11-09T07:54:16.337Z,32.19
2022-11-09T07:55:18.248Z,31.95
2022-11-09T07:56:20.228Z,34.73
2022-11-09T07:57:22.088Z,33.29
2022-11-09T07:58:24.093Z,34.21
2022-11-09T07:59:26.851Z,31.63
2022-11-09T08:00:31.295Z,31.32
2022-11-09T08:01:35.362Z,29.16
2022-11-09T08:02:37.993Z,27.86
2022-11-09T08:03:40.816Z,28.88
2022-11-09T08:04:43.163Z,23.60
2022-11-09T08:05:45.661Z,27.71
2022-11-09T08:06:47.696Z,21.87
2022-11-09T08:07:57.924Z,18.63
2022-11-09T08:09:00.212Z,18.96
2022-11-09T08:10:02.420Z,17.75
2022-11-09T08:11:04.556Z,16.91
2022-11-09T08:12:06.494Z,16.40
2022-11-09T08:13:14.872Z,15.01
2022-11-09T08:14:16.809Z,18.06
2022-11-09T08:15:18.688Z,16.61
2022-11-09T08:16:20.857Z,15.29
2022-11-09T08:17:23.297Z,20.43
2022-11-09T08:18:25.264Z,23.80
2022-11-09T08:19:27.747Z,31.26
2022-11-09T08:20:30.512Z,19.90
2022-11-09T08:21:34.774Z,15.77
2022-11-09T08:22:44.296Z,13.35
2022-11-09T08:23:46.238Z,14.02
2022-11-09T08:24:50.101Z,14.99
2022-11-09T08:25:51.984Z,11.54
2022-11-09T08:26:54.189Z,13.13
2022-11-09T08:27:56.883Z,17.45
2022-11-09T08:28:58.755Z,13.34
2022-11-09T08:30:00.631Z,16.09
2022-11-09T08:31:05.765Z,13.85
2022-11-09T08:32:07.719Z,14.93
2022-11-09T08:33:10.740Z,17.39
2022-11-09T08:34:13.121Z,17.29
2022-11-09T08:35:18.666Z,14.05
2022-11-09T08:36:20.689Z,16.80
2022-11-09T08:37:22.606Z,15.44
2022-11-09T08:38:25.516Z,12.31
2022-11-09T08:39:27.436Z,13.71
2022-11-09T08:40:30.406Z,14.43
2022-11-09T08:41:33.523Z,17.04
2022-11-09T08:42:36.278Z,14.86
2022-11-09T08:43:38.545Z,14.24
2022-11-09T08:44:40.433Z,17.33
2022-11-09T08:45:42.389Z,17.78
2022-11-09T08:46:44.358Z,15.01
2022-11-09T08:47:46.941Z,15.25
2022-11-09T08:48:48.812Z,15.15
2022-11-09T08:49:50.880Z,17.23
2022-11-09T08:50:55.732Z,14.90
2022-11-09T08:51:57.671Z,16.54
2022-11-09T08:53:01.320Z,15.61
2022-11-09T08:54:03.209Z,15.24
2022-11-09T08:55:06.024Z,14.43
2022-11-09T08:56:09.481Z,10.29
2022-11-09T08:57:11.352Z,11.81
2022-11-09T08:58:13.542Z,8.87
2022-11-09T08:59:15.407Z,11.82
2022-11-09T09:00:20.276Z,9.51
2022-11-09T09:01:22.318Z,9.92
2022-11-09T09:02:24.469Z,12.69
2022-11-09T09:03:26.377Z,12.71
2022-11-09T09:04:28.264Z,16.03
2022-11-09T09:05:30.334Z,14.42
2022-11-09T09:06:32.473Z,11.80
2022-11-09T09:07:34.673Z,12.63
2022-11-09T09:08:37.402Z,11.71
2022-11-09T09:09:39.677Z,12.11
2022-11-09T09:10:42.673Z,9.57
2022-11-09T09:11:44.581Z,9.95
2022-11-09T09:12:46.457Z,9.84
2022-11-09T09:13:48.322Z,13.73
2022-11-09T09:14:50.190Z,11.01
2022-11-09T09:15:53.109Z,10.87
2022-11-09T09:16:55.513Z,9.36
2022-11-09T09:18:03.327Z,11.31
2022-11-09T09:19:05.314Z,11.57
2022-11-09T09:20:08.898Z,10.85
2022-11-09T09:21:11.544Z,9.68
2022-11-09T09:22:13.424Z,9.69
2022-11-09T09:23:16.613Z,9.79
2022-11-09T09:24:18.788Z,9.04
2022-11-09T09:25:20.801Z,11.55
2022-11-09T09:26:22.783Z,10.67
2022-11-09T09:27:24.652Z,11.72
2022-11-09T09:28:26.526Z,9.85
2022-11-09T09:29:28.383Z,11.64
2022-11-09T09:30:30.702Z,9.36
2022-11-09T09:31:32.604Z,12.19
2022-11-09T09:32:34.709Z,8.09
2022-11-09T09:33:37.020Z,10.45
2022-11-09T09:34:38.915Z,10.58
2022-11-09T09:35:40.892Z,12.91
2022-11-09T09:36:47.574Z,8.77
2022-11-09T09:37:46.657Z,11.04
2022-11-09T09:38:53.562Z,7.43
2022-11-09T09:39:55.529Z,9.62
2022-11-09T09:41:03.537Z,8.40
2022-11-09T09:42:08.851Z,10.18
2022-11-09T09:44:48.675Z,11.71
2022-11-09T09:45:52.935Z,7.89
2022-11-09T09:47:07.240Z,8.76
2022-11-09T09:48:22.479Z,6.37
2022-11-09T09:49:28.555Z,6.87
2022-11-09T09:50:51.981Z,7.91
2022-11-09T09:52:32.077Z,8.25
2022-11-09T09:53:43.673Z,6.22
2022-11-09T09:54:55.667Z,5.79
2022-11-09T09:56:10.768Z,7.41
2022-11-09T09:57:22.125Z,5.60
2022-11-09T09:59:45.061Z,7.99
2022-11-09T10:00:48.816Z,7.15
2022-11-09T10:01:52.168Z,7.24
2022-11-09T10:02:54.922Z,7.16
2022-11-09T10:03:56.999Z,6.90
2022-11-09T10:06:38.484Z,5.29
2022-11-09T10:07:59.561Z,6.54
2022-11-09T14:15:38.010Z,79.75
2022-11-09T14:16:49.809Z,70.77
2022-11-09T14:18:07.997Z,59.32
2022-11-09T14:19:30.029Z,49.96
2022-11-09T14:20:39.518Z,34.09
2022-11-09T14:21:47.637Z,29.24
2022-11-09T14:22:51.964Z,18.94
2022-11-09T14:24:04.469Z,19.34
2022-11-09T14:25:22.160Z,14.86
2022-11-09T14:26:24.621Z,12.58
2022-11-09T14:27:26.630Z,16.36
2022-11-09T14:28:31.051Z,16.11
2022-11-09T14:29:34.154Z,15.95
2022-11-09T14:30:40.019Z,15.49
2022-11-09T14:31:45.409Z,22.86
2022-11-09T14:32:52.926Z,33.19
2022-11-09T14:34:01.136Z,40.23
2022-11-09T14:35:20.960Z,61.14
2022-11-09T14:36:24.509Z,70.89
2022-11-09T14:37:27.823Z,76.46
2022-11-09T14:38:39.556Z,79.07
2022-11-09T14:39:41.666Z,94.13
2022-11-09T14:40:46.184Z,87.92
2022-11-09T14:41:50.412Z,87.79
2022-11-09T14:42:56.103Z,70.79
2022-11-09T14:43:59.905Z,70.77
2022-11-09T14:45:01.829Z,53.36
2022-11-09T14:46:07.026Z,45.93
2022-11-09T14:47:15.088Z,39.34
2022-11-09T14:48:19.282Z,39.64
2022-11-09T14:49:25.055Z,41.18
2022-11-09T14:50:33.664Z,51.82
2022-11-09T14:51:39.376Z,58.72
2022-11-09T14:52:41.689Z,54.66
2022-11-09T14:53:44.289Z,53.65
2022-11-09T14:54:48.778Z,53.70
2022-11-09T14:55:54.842Z,52.78
2022-11-09T14:56:57.625Z,51.90
2022-11-09T14:58:00.669Z,51.50
2022-11-09T14:59:07.945Z,38.76
2022-11-09T15:00:32.027Z,38.53
2022-11-09T15:01:34.252Z,35.45
2022-11-09T15:02:36.279Z,33.20
2022-11-09T15:03:38.343Z,35.29
2022-11-09T15:05:01.897Z,30.29
2022-11-09T15:06:11.475Z,28.14
2022-11-09T15:07:17.789Z,29.72
2022-11-09T15:08:22.317Z,28.56
2022-11-09T15:09:46.547Z,28.48
2022-11-09T15:10:52.450Z,27.56
2022-11-09T15:11:56.560Z,34.67
2022-11-09T15:13:01.729Z,54.86
2022-11-09T15:14:16.691Z,60.53
2022-11-09T15:15:22.318Z,56.17
2022-11-09T15:16:28.106Z,50.37
2022-11-09T15:17:37.170Z,43.84
2022-11-09T15:18:45.731Z,36.93
2022-11-09T15:19:54.217Z,37.02
2022-11-09T15:21:15.297Z,34.97
2022-11-09T15:22:37.917Z,32.11
2022-11-09T15:23:48.882Z,30.46
2022-11-09T15:24:50.880Z,30.16
2022-11-09T15:25:55.242Z,27.83
2022-11-09T15:26:57.575Z,31.48
2022-11-09T15:28:15.162Z,31.71
2022-11-09T15:29:33.112Z,24.42
2022-11-09T15:30:46.176Z,38.39
2022-11-09T15:32:01.763Z,35.09
2022-11-09T15:33:19.512Z,34.22
2022-11-09T15:34:24.703Z,33.83
2022-11-09T15:35:27.313Z,33.66
2022-11-09T15:36:32.982Z,31.68
2022-11-09T15:37:44.305Z,33.58
2022-11-09T15:39:50.942Z,28.62
2022-11-09T15:40:53.133Z,29.29
2022-11-09T15:41:55.065Z,31.30
2022-11-09T15:42:57.428Z,28.61
2022-11-09T15:43:59.850Z,29.81
2022-11-09T15:45:02.508Z,32.27
2022-11-09T15:46:06.147Z,30.08
2022-11-09T15:47:32.893Z,27.91
2022-11-09T15:48:39.987Z,31.12
2022-11-09T15:49:41.276Z,30.42
2022-11-09T15:50:43.389Z,31.61
2022-11-09T15:51:45.902Z,32.45
2022-11-09T15:52:48.484Z,32.17
2022-11-09T15:55:02.327Z,34.89
2022-11-09T15:56:06.535Z,36.49
2022-11-09T15:57:12.189Z,34.69
2022-11-09T15:58:16.747Z,33.28
2022-11-09T15:59:22.261Z,31.84
2022-11-09T16:00:24.433Z,31.19
2022-11-09T16:01:27.477Z,35.97
2022-11-09T16:02:29.519Z,32.61
2022-11-09T16:03:31.443Z,29.64
2022-11-09T16:04:33.721Z,29.49
2022-11-09T16:05:35.881Z,30.65
2022-11-09T16:06:41.317Z,28.41
2022-11-09T16:07:51.353Z,32.09
2022-11-09T16:08:53.380Z,25.78
2022-11-09T16:09:55.831Z,26.89
2022-11-09T16:10:59.164Z,24.75
2022-11-09T16:12:01.163Z,26.39
2022-11-09T16:13:07.056Z,26.81
2022-11-09T16:14:09.927Z,23.93
2022-11-09T16:15:12.748Z,25.21
2022-11-09T16:16:15.257Z,31.12
2022-11-09T16:17:18.242Z,30.95
2022-11-09T16:18:25.503Z,32.21
2022-11-09T16:19:23.939Z,34.46
2022-11-09T16:20:26.034Z,33.48
2022-11-09T16:21:31.180Z,33.01
2022-11-09T16:22:35.720Z,37.22
2022-11-09T16:23:38.133Z,32.49
2022-11-09T16:24:40.143Z,34.65
2022-11-09T16:25:42.031Z,38.47
2022-11-09T16:26:44.205Z,33.81
2022-11-09T16:27:51.032Z,34.49
2022-11-09T16:28:50.276Z,36.58
2022-11-09T16:29:53.145Z,36.63
2022-11-09T16:30:56.633Z,37.98
2022-11-09T16:31:58.531Z,37.84
2022-11-09T16:33:01.022Z,36.67
2022-11-09T16:34:03.332Z,32.43
2022-11-09T16:35:27.771Z,33.95
2022-11-09T16:36:18.602Z,32.74
2022-11-09T16:37:21.515Z,34.07
2022-11-09T16:38:23.732Z,38.42
2022-11-09T16:39:26.116Z,34.03
2022-11-09T16:40:29.574Z,36.51
2022-11-09T16:41:31.630Z,30.94
2022-11-09T16:42:33.957Z,35.19
2022-11-09T16:43:36.961Z,31.53
2022-11-09T16:44:41.367Z,34.31
2022-11-09T16:45:47.109Z,37.16
2022-11-09T16:46:49.870Z,38.56
2022-11-09T16:47:54.062Z,35.83
2022-11-09T16:48:58.023Z,37.36
2022-11-09T16:49:59.949Z,37.18
2022-11-09T16:51:01.985Z,33.52
2022-11-09T16:52:04.471Z,34.62
2022-11-09T16:53:06.370Z,31.91
2022-11-09T16:54:08.262Z,33.37
2022-11-09T16:55:12.469Z,32.23
2022-11-09T16:56:16.361Z,34.70
2022-11-09T16:57:18.341Z,30.83
2022-11-09T16:58:20.856Z,29.95
2022-11-09T16:59:24.166Z,30.52
2022-11-09T17:00:42.340Z,30.77
2022-11-09T17:01:31.237Z,31.33
2022-11-09T17:02:34.736Z,33.82
2022-11-09T17:03:37.161Z,33.71
2022-11-09T17:04:39.032Z,29.39
2022-11-09T17:05:42.009Z,29.60
2022-11-09T17:06:44.039Z,33.21
2022-11-09T17:07:47.356Z,30.75
2022-11-09T17:08:49.258Z,30.89
2022-11-09T17:09:51.138Z,33.67
2022-11-09T17:10:54.552Z,34.15
2022-11-09T17:11:56.923Z,33.15
2022-11-09T17:12:59.115Z,30.04
2022-11-09T17:14:01.101Z,33.41
2022-11-09T17:15:03.979Z,28.27
2022-11-09T17:16:11.807Z,30.13
2022-11-09T17:17:19.640Z,33.57
2022-11-09T17:18:19.017Z,33.14
2022-11-09T17:19:21.335Z,36.09
2022-11-09T17:20:23.944Z,37.03
2022-11-09T17:21:27.748Z,36.85
2022-11-09T17:22:30.442Z,33.01
2022-11-09T17:23:32.836Z,31.46
2022-11-09T17:24:34.812Z,32.43
2022-11-09T17:25:38.069Z,35.30
2022-11-09T17:26:40.045Z,34.97
2022-11-09T17:27:41.966Z,30.38
2022-11-09T17:28:44.540Z,31.69
2022-11-09T17:29:47.342Z,27.67
2022-11-09T17:30:50.493Z,34.24
2022-11-09T17:31:53.025Z,32.01
2022-11-09T17:32:54.892Z,32.74
2022-11-09T17:34:00.968Z,31.70
2022-11-09T17:35:00.591Z,29.76
2022-11-09T17:36:05.642Z,31.01
2022-11-09T17:37:07.600Z,30.18
2022-11-09T17:38:09.909Z,31.21
2022-11-09T17:39:11.788Z,30.73
2022-11-09T17:40:15.812Z,29.31
2022-11-09T17:41:19.730Z,32.28
2022-11-09T17:42:21.625Z,32.56
2022-11-09T17:43:23.524Z,28.59
2022-11-09T17:44:25.411Z,30.37
2022-11-09T17:45:27.300Z,32.65
2022-11-09T17:46:30.328Z,30.59
2022-11-09T17:47:33.304Z,29.50
2022-11-09T17:48:37.216Z,29.93
2022-11-09T17:49:39.153Z,32.53
2022-11-09T17:50:42.646Z,31.33
2022-11-09T17:51:44.551Z,31.42
2022-11-09T17:52:50.443Z,34.11
2022-11-09T17:53:52.524Z,30.17
2022-11-09T17:54:54.432Z,30.99
2022-11-09T17:55:58.860Z,26.41
2022-11-09T17:57:01.024Z,29.68
2022-11-09T17:58:04.101Z,28.15
2022-11-09T17:59:06.026Z,27.74
2022-11-09T18:00:10.074Z,29.07
2022-11-09T18:01:15.519Z,31.26
2022-11-09T18:02:17.673Z,28.71
2022-11-09T18:03:19.557Z,31.24
2022-11-09T18:04:21.546Z,32.65
2022-11-09T18:05:23.440Z,28.17
2022-11-09T20:17:42.416Z,41.70
2022-11-09T20:18:44.453Z,43.13
2022-11-09T20:19:46.403Z,42.98
2022-11-09T20:20:48.493Z,38.21
2022-11-09T20:21:50.396Z,40.56
2022-11-09T20:22:52.283Z,40.65
2022-11-09T20:23:56.862Z,44.37
2022-11-09T20:24:59.382Z,41.82
2022-11-09T20:26:06.769Z,42.63
2022-11-09T20:27:08.798Z,42.89
2022-11-09T20:28:10.653Z,37.91
2022-11-09T20:29:13.248Z,34.73
2022-11-09T20:30:18.059Z,39.09
2022-11-09T20:31:23.228Z,37.76
2022-11-09T20:32:26.720Z,35.37
2022-11-09T20:33:28.602Z,38.34
2022-11-09T20:34:30.474Z,36.18
2022-11-09T20:35:32.677Z,34.32
2022-11-09T20:36:34.714Z,35.21
2022-11-09T20:37:36.728Z,36.75
2022-11-09T20:38:39.867Z,29.46
2022-11-09T20:39:43.962Z,38.53
2022-11-09T20:40:54.275Z,38.79
2022-11-09T20:41:58.014Z,35.54
2022-11-09T20:42:59.942Z,37.22
2022-11-09T20:44:01.806Z,33.46
2022-11-09T20:45:04.789Z,32.22
2022-11-09T20:46:10.051Z,32.05
2022-11-09T20:47:11.959Z,33.61
2022-11-09T20:48:31.358Z,30.77
2022-11-09T20:49:17.651Z,30.96
2022-11-09T20:50:19.951Z,35.89
2022-11-09T20:51:23.367Z,38.59
2022-11-09T20:52:25.496Z,37.16
2022-11-09T20:53:28.224Z,34.90
2022-11-09T20:54:30.674Z,35.56
2022-11-09T20:55:39.739Z,37.11
2022-11-09T20:56:41.858Z,37.63
2022-11-09T20:57:43.714Z,34.55
2022-11-09T20:58:48.131Z,38.63
2022-11-09T20:59:50.089Z,35.96
2022-11-09T21:01:04.691Z,36.59
2022-11-09T21:02:12.540Z,35.67
2022-11-09T21:03:17.010Z,39.74
2022-11-09T21:04:18.898Z,36.90
2022-11-09T21:05:20.785Z,33.78
2022-11-09T21:06:22.970Z,34.44
2022-11-09T21:07:25.896Z,38.19
2022-11-09T21:08:28.377Z,34.52
2022-11-09T21:09:30.288Z,33.45
2022-11-09T21:10:32.508Z,33.32
2022-11-09T21:11:34.384Z,33.49
2022-11-09T21:12:36.882Z,35.27
2022-11-09T21:13:42.211Z,34.61
2022-11-09T21:14:44.279Z,40.14
2022-11-09T21:15:47.652Z,35.58
2022-11-09T21:16:50.183Z,34.15